sensor_id;sensor_type;location;lat;lon;timestamp;temperature;humidity
11772;DHT22;12556;55.748;13.194;2022-08-05T00:01:22;19.60;99.90
11772;DHT22;12556;55.748;13.194;2022-08-05T00:03:50;19.60;99.90
11772;DHT22;12556;55.748;13.194;2022-08-05T00:06:18;19.60;99.90
11772;DHT22;12556;55.748;13.194;2022-08-05T00:08:44;19.60;99.90
11772;DHT22;12556;55.748;13.194;2022-08-05T00:11:13;19.50;99.90
11772;DHT22;12556;55.748;13.194;2022-08-05T00:13:42;19.50;99.90
11772;DHT22;12556;55.748;13.194;2022-08-05T00:16:11;19.50;99.90
11772;DHT22;12556;55.748;13.194;2022-08-05T00:18:40;19.50;99.90
11772;DHT22;12556;55.748;13.194;2022-08-05T00:21:08;19.40;99.90
11772;DHT22;12556;55.748;13.194;2022-08-05T00:23:36;19.40;99.90
11772;DHT22;12556;55.748;13.194;2022-08-05T00:26:03;19.40;99.90
11772;DHT22;12556;55.748;13.194;2022-08-05T00:28:30;19.30;99.90
11772;DHT22;12556;55.748;13.194;2022-08-05T00:30:56;19.30;99.90
11772;DHT22;12556;55.748;13.194;2022-08-05T00:33:23;19.30;99.90
11772;DHT22;12556;55.748;13.194;2022-08-05T00:35:50;19.20;99.90
11772;DHT22;12556;55.748;13.194;2022-08-05T00:38:18;19.20;99.90
11772;DHT22;12556;55.748;13.194;2022-08-05T00:40:46;19.20;99.90
11772;DHT22;12556;55.748;13.194;2022-08-05T00:43:14;19.20;99.90
11772;DHT22;12556;55.748;13.194;2022-08-05T00:45:41;19.10;99.90
11772;DHT22;12556;55.748;13.194;2022-08-05T00:48:09;19.10;99.90
11772;DHT22;12556;55.748;13.194;2022-08-05T00:50:37;19.10;99.90
11772;DHT22;12556;55.748;13.194;2022-08-05T00:53:04;19.10;99.90
11772;DHT22;12556;55.748;13.194;2022-08-05T00:55:32;19.00;99.90
11772;DHT22;12556;55.748;13.194;2022-08-05T00:57:59;19.00;99.90
11772;DHT22;12556;55.748;13.194;2022-08-05T01:00:27;19.00;99.90
11772;DHT22;12556;55.748;13.194;2022-08-05T01:02:55;19.00;99.90
11772;DHT22;12556;55.748;13.194;2022-08-05T01:05:22;19.10;99.90
11772;DHT22;12556;55.748;13.194;2022-08-05T01:07:49;19.10;99.90
11772;DHT22;12556;55.748;13.194;2022-08-05T01:10:21;19.00;99.90
11772;DHT22;12556;55.748;13.194;2022-08-05T01:12:52;19.00;99.90
11772;DHT22;12556;55.748;13.194;2022-08-05T01:15:24;19.00;99.90
11772;DHT22;12556;55.748;13.194;2022-08-05T01:17:57;18.90;99.90
11772;DHT22;12556;55.748;13.194;2022-08-05T01:20:33;18.90;99.90
11772;DHT22;12556;55.748;13.194;2022-08-05T01:23:10;18.90;99.90
11772;DHT22;12556;55.748;13.194;2022-08-05T01:26:12;18.90;99.90
11772;DHT22;12556;55.748;13.194;2022-08-05T01:28:44;18.90;99.90
11772;DHT22;12556;55.748;13.194;2022-08-05T01:31:18;18.90;99.90
11772;DHT22;12556;55.748;13.194;2022-08-05T01:33:49;18.90;99.90
11772;DHT22;12556;55.748;13.194;2022-08-05T01:36:18;18.90;99.90
11772;DHT22;12556;55.748;13.194;2022-08-05T01:38:45;19.00;99.90
11772;DHT22;12556;55.748;13.194;2022-08-05T01:41:16;19.00;99.90
11772;DHT22;12556;55.748;13.194;2022-08-05T01:43:45;19.00;99.90
11772;DHT22;12556;55.748;13.194;2022-08-05T01:46:15;19.00;99.90
11772;DHT22;12556;55.748;13.194;2022-08-05T01:48:43;19.00;99.90
11772;DHT22;12556;55.748;13.194;2022-08-05T01:51:11;19.00;99.90
11772;DHT22;12556;55.748;13.194;2022-08-05T01:53:39;19.00;99.90
11772;DHT22;12556;55.748;13.194;2022-08-05T01:56:08;19.00;99.90
11772;DHT22;12556;55.748;13.194;2022-08-05T01:58:36;19.00;99.90
11772;DHT22;12556;55.748;13.194;2022-08-05T02:01:05;19.10;99.90
11772;DHT22;12556;55.748;13.194;2022-08-05T02:03:35;19.10;99.90
11772;DHT22;12556;55.748;13.194;2022-08-05T02:06:04;19.10;99.90
11772;DHT22;12556;55.748;13.194;2022-08-05T02:08:31;19.10;99.90
11772;DHT22;12556;55.748;13.194;2022-08-05T02:11:02;19.10;99.90
11772;DHT22;12556;55.748;13.194;2022-08-05T02:13:37;19.10;99.90
11772;DHT22;12556;55.748;13.194;2022-08-05T02:16:14;19.20;99.90
11772;DHT22;12556;55.748;13.194;2022-08-05T02:18:47;19.20;99.90
11772;DHT22;12556;55.748;13.194;2022-08-05T02:21:17;19.20;99.90
11772;DHT22;12556;55.748;13.194;2022-08-05T02:23:49;19.20;99.90
11772;DHT22;12556;55.748;13.194;2022-08-05T02:26:21;19.20;99.90
11772;DHT22;12556;55.748;13.194;2022-08-05T02:28:49;19.20;99.90
11772;DHT22;12556;55.748;13.194;2022-08-05T02:31:21;19.30;99.90
11772;DHT22;12556;55.748;13.194;2022-08-05T02:33:51;19.30;99.90
11772;DHT22;12556;55.748;13.194;2022-08-05T02:36:21;19.40;99.90
11772;DHT22;12556;55.748;13.194;2022-08-05T02:38:49;19.40;99.90
11772;DHT22;12556;55.748;13.194;2022-08-05T02:41:19;19.50;99.90
11772;DHT22;12556;55.748;13.194;2022-08-05T02:43:47;19.50;99.90
11772;DHT22;12556;55.748;13.194;2022-08-05T02:46:15;19.50;99.90
11772;DHT22;12556;55.748;13.194;2022-08-05T02:48:45;19.50;99.90
11772;DHT22;12556;55.748;13.194;2022-08-05T02:51:14;19.50;99.90
11772;DHT22;12556;55.748;13.194;2022-08-05T02:53:41;19.50;99.90
11772;DHT22;12556;55.748;13.194;2022-08-05T02:56:09;19.50;99.90
11772;DHT22;12556;55.748;13.194;2022-08-05T02:58:38;19.50;99.90
11772;DHT22;12556;55.748;13.194;2022-08-05T03:01:08;19.50;99.90
11772;DHT22;12556;55.748;13.194;2022-08-05T03:03:38;19.50;99.90
11772;DHT22;12556;55.748;13.194;2022-08-05T03:06:09;19.50;99.90
11772;DHT22;12556;55.748;13.194;2022-08-05T03:08:37;19.50;99.90
11772;DHT22;12556;55.748;13.194;2022-08-05T03:11:05;19.50;99.90
11772;DHT22;12556;55.748;13.194;2022-08-05T03:13:41;19.50;99.90
11772;DHT22;12556;55.748;13.194;2022-08-05T03:16:08;19.50;99.90
11772;DHT22;12556;55.748;13.194;2022-08-05T03:18:35;19.50;99.90
11772;DHT22;12556;55.748;13.194;2022-08-05T03:21:02;19.50;99.90
11772;DHT22;12556;55.748;13.194;2022-08-05T03:23:32;19.50;99.90
11772;DHT22;12556;55.748;13.194;2022-08-05T03:25:59;19.50;99.90
11772;DHT22;12556;55.748;13.194;2022-08-05T03:28:26;19.50;99.90
11772;DHT22;12556;55.748;13.194;2022-08-05T03:30:55;19.50;99.90
11772;DHT22;12556;55.748;13.194;2022-08-05T03:33:22;19.50;99.90
11772;DHT22;12556;55.748;13.194;2022-08-05T03:35:50;19.50;99.90
11772;DHT22;12556;55.748;13.194;2022-08-05T03:38:17;19.50;99.90
11772;DHT22;12556;55.748;13.194;2022-08-05T03:40:45;19.50;99.90
11772;DHT22;12556;55.748;13.194;2022-08-05T03:43:12;19.50;99.90
11772;DHT22;12556;55.748;13.194;2022-08-05T03:45:39;19.50;99.90
11772;DHT22;12556;55.748;13.194;2022-08-05T03:48:06;19.50;99.90
11772;DHT22;12556;55.748;13.194;2022-08-05T03:50:42;19.50;99.90
11772;DHT22;12556;55.748;13.194;2022-08-05T03:53:12;19.50;99.90
11772;DHT22;12556;55.748;13.194;2022-08-05T03:55:56;19.40;99.90
11772;DHT22;12556;55.748;13.194;2022-08-05T03:58:27;19.40;99.90
11772;DHT22;12556;55.748;13.194;2022-08-05T04:00:56;19.40;99.90
11772;DHT22;12556;55.748;13.194;2022-08-05T04:03:24;19.30;99.90
11772;DHT22;12556;55.748;13.194;2022-08-05T04:05:53;19.30;99.90
11772;DHT22;12556;55.748;13.194;2022-08-05T04:08:21;19.20;99.90
11772;DHT22;12556;55.748;13.194;2022-08-05T04:10:49;19.20;99.90
11772;DHT22;12556;55.748;13.194;2022-08-05T04:13:16;19.10;99.90
11772;DHT22;12556;55.748;13.194;2022-08-05T04:15:46;19.10;99.90
11772;DHT22;12556;55.748;13.194;2022-08-05T04:18:13;19.10;99.90
11772;DHT22;12556;55.748;13.194;2022-08-05T04:20:40;19.10;99.90
11772;DHT22;12556;55.748;13.194;2022-08-05T04:23:07;19.10;99.90
11772;DHT22;12556;55.748;13.194;2022-08-05T04:25:35;19.00;99.90
11772;DHT22;12556;55.748;13.194;2022-08-05T04:28:03;19.10;99.90
11772;DHT22;12556;55.748;13.194;2022-08-05T04:30:30;19.10;99.90
11772;DHT22;12556;55.748;13.194;2022-08-05T04:32:57;19.10;99.90
11772;DHT22;12556;55.748;13.194;2022-08-05T04:35:23;19.00;99.90
11772;DHT22;12556;55.748;13.194;2022-08-05T04:37:50;19.00;99.90
11772;DHT22;12556;55.748;13.194;2022-08-05T04:40:17;18.90;99.90
11772;DHT22;12556;55.748;13.194;2022-08-05T04:42:44;18.80;99.90
11772;DHT22;12556;55.748;13.194;2022-08-05T04:45:12;18.80;99.90
11772;DHT22;12556;55.748;13.194;2022-08-05T04:47:39;18.80;99.90
11772;DHT22;12556;55.748;13.194;2022-08-05T04:50:06;18.70;99.90
11772;DHT22;12556;55.748;13.194;2022-08-05T04:52:33;18.70;99.90
11772;DHT22;12556;55.748;13.194;2022-08-05T04:55:00;18.70;99.90
11772;DHT22;12556;55.748;13.194;2022-08-05T04:57:27;18.60;99.90
11772;DHT22;12556;55.748;13.194;2022-08-05T04:59:54;18.60;99.90
11772;DHT22;12556;55.748;13.194;2022-08-05T05:02:22;18.60;99.90
11772;DHT22;12556;55.748;13.194;2022-08-05T05:04:49;18.60;99.90
11772;DHT22;12556;55.748;13.194;2022-08-05T05:07:16;18.60;99.90
11772;DHT22;12556;55.748;13.194;2022-08-05T05:09:43;18.60;99.90
11772;DHT22;12556;55.748;13.194;2022-08-05T05:12:10;18.60;99.90
11772;DHT22;12556;55.748;13.194;2022-08-05T05:14:37;18.60;99.90
11772;DHT22;12556;55.748;13.194;2022-08-05T05:17:04;18.70;99.90
11772;DHT22;12556;55.748;13.194;2022-08-05T05:19:32;18.70;99.90
11772;DHT22;12556;55.748;13.194;2022-08-05T05:21:59;18.60;99.90
11772;DHT22;12556;55.748;13.194;2022-08-05T05:24:26;18.40;99.90
11772;DHT22;12556;55.748;13.194;2022-08-05T05:26:53;18.80;99.90
11772;DHT22;12556;55.748;13.194;2022-08-05T05:29:20;18.80;99.90
11772;DHT22;12556;55.748;13.194;2022-08-05T05:31:47;18.80;99.90
11772;DHT22;12556;55.748;13.194;2022-08-05T05:34:14;18.80;99.90
11772;DHT22;12556;55.748;13.194;2022-08-05T05:36:42;18.80;99.90
11772;DHT22;12556;55.748;13.194;2022-08-05T05:39:09;18.80;99.90
11772;DHT22;12556;55.748;13.194;2022-08-05T05:41:35;18.70;99.90
11772;DHT22;12556;55.748;13.194;2022-08-05T05:44:03;18.70;99.90
11772;DHT22;12556;55.748;13.194;2022-08-05T05:46:30;18.70;99.90
11772;DHT22;12556;55.748;13.194;2022-08-05T05:48:57;18.70;99.90
11772;DHT22;12556;55.748;13.194;2022-08-05T05:51:25;18.70;99.90
11772;DHT22;12556;55.748;13.194;2022-08-05T05:53:53;18.80;99.90
11772;DHT22;12556;55.748;13.194;2022-08-05T05:56:21;18.80;99.90
11772;DHT22;12556;55.748;13.194;2022-08-05T05:58:48;18.80;99.90
11772;DHT22;12556;55.748;13.194;2022-08-05T06:01:15;18.80;99.90
11772;DHT22;12556;55.748;13.194;2022-08-05T06:03:42;18.90;99.90
11772;DHT22;12556;55.748;13.194;2022-08-05T06:06:09;19.30;99.90
11772;DHT22;12556;55.748;13.194;2022-08-05T06:08:36;18.80;99.90
11772;DHT22;12556;55.748;13.194;2022-08-05T06:11:05;18.70;99.90
11772;DHT22;12556;55.748;13.194;2022-08-05T06:13:32;18.70;99.90
11772;DHT22;12556;55.748;13.194;2022-08-05T06:15:59;18.50;99.90
11772;DHT22;12556;55.748;13.194;2022-08-05T06:18:25;18.50;99.90
11772;DHT22;12556;55.748;13.194;2022-08-05T06:20:52;18.40;99.90
11772;DHT22;12556;55.748;13.194;2022-08-05T06:23:19;18.30;99.90
11772;DHT22;12556;55.748;13.194;2022-08-05T06:25:46;18.30;99.90
11772;DHT22;12556;55.748;13.194;2022-08-05T06:28:15;18.20;99.90
11772;DHT22;12556;55.748;13.194;2022-08-05T06:30:41;18.20;99.90
11772;DHT22;12556;55.748;13.194;2022-08-05T06:33:08;18.10;99.90
11772;DHT22;12556;55.748;13.194;2022-08-05T06:35:35;18.10;99.90
11772;DHT22;12556;55.748;13.194;2022-08-05T06:38:02;18.10;99.90
11772;DHT22;12556;55.748;13.194;2022-08-05T06:40:29;18.10;99.90
11772;DHT22;12556;55.748;13.194;2022-08-05T06:42:56;18.00;99.90
11772;DHT22;12556;55.748;13.194;2022-08-05T06:45:24;17.90;99.90
11772;DHT22;12556;55.748;13.194;2022-08-05T06:47:51;17.80;99.90
11772;DHT22;12556;55.748;13.194;2022-08-05T06:50:18;17.80;99.90
11772;DHT22;12556;55.748;13.194;2022-08-05T06:52:45;17.70;99.90
11772;DHT22;12556;55.748;13.194;2022-08-05T06:55:11;17.70;99.90
11772;DHT22;12556;55.748;13.194;2022-08-05T06:57:38;17.60;99.90
11772;DHT22;12556;55.748;13.194;2022-08-05T07:00:06;17.60;99.90
11772;DHT22;12556;55.748;13.194;2022-08-05T07:02:41;17.60;99.90
11772;DHT22;12556;55.748;13.194;2022-08-05T07:05:09;17.50;99.90
11772;DHT22;12556;55.748;13.194;2022-08-05T07:07:36;17.40;99.90
11772;DHT22;12556;55.748;13.194;2022-08-05T07:10:05;17.30;99.90
11772;DHT22;12556;55.748;13.194;2022-08-05T07:12:32;17.40;99.90
11772;DHT22;12556;55.748;13.194;2022-08-05T07:15:19;17.30;99.90
11772;DHT22;12556;55.748;13.194;2022-08-05T07:18:05;17.20;99.90
11772;DHT22;12556;55.748;13.194;2022-08-05T07:20:32;17.20;99.90
11772;DHT22;12556;55.748;13.194;2022-08-05T07:22:59;17.10;99.90
11772;DHT22;12556;55.748;13.194;2022-08-05T07:25:26;17.10;99.90
11772;DHT22;12556;55.748;13.194;2022-08-05T07:27:54;17.10;99.90
11772;DHT22;12556;55.748;13.194;2022-08-05T07:30:21;17.10;99.90
11772;DHT22;12556;55.748;13.194;2022-08-05T07:32:47;17.10;99.90
11772;DHT22;12556;55.748;13.194;2022-08-05T07:35:16;17.20;99.90
11772;DHT22;12556;55.748;13.194;2022-08-05T07:37:43;17.30;99.90
11772;DHT22;12556;55.748;13.194;2022-08-05T07:40:10;17.40;99.90
11772;DHT22;12556;55.748;13.194;2022-08-05T07:42:37;17.40;99.90
11772;DHT22;12556;55.748;13.194;2022-08-05T07:45:05;17.40;99.90
11772;DHT22;12556;55.748;13.194;2022-08-05T07:47:32;17.80;99.90
11772;DHT22;12556;55.748;13.194;2022-08-05T07:49:59;17.60;99.90
11772;DHT22;12556;55.748;13.194;2022-08-05T07:52:27;17.70;99.90
11772;DHT22;12556;55.748;13.194;2022-08-05T07:54:54;17.80;99.90
11772;DHT22;12556;55.748;13.194;2022-08-05T07:57:21;17.90;99.90
11772;DHT22;12556;55.748;13.194;2022-08-05T07:59:48;17.90;99.90
11772;DHT22;12556;55.748;13.194;2022-08-05T08:02:15;18.00;99.90
11772;DHT22;12556;55.748;13.194;2022-08-05T08:04:42;18.10;99.90
11772;DHT22;12556;55.748;13.194;2022-08-05T08:07:09;18.10;99.90
11772;DHT22;12556;55.748;13.194;2022-08-05T08:09:37;18.10;99.90
11772;DHT22;12556;55.748;13.194;2022-08-05T08:12:04;18.20;99.90
11772;DHT22;12556;55.748;13.194;2022-08-05T08:14:31;18.20;99.90
11772;DHT22;12556;55.748;13.194;2022-08-05T08:16:58;18.20;99.90
11772;DHT22;12556;55.748;13.194;2022-08-05T08:19:25;18.30;99.90
11772;DHT22;12556;55.748;13.194;2022-08-05T08:21:52;18.30;99.90
11772;DHT22;12556;55.748;13.194;2022-08-05T08:24:18;18.30;99.90
11772;DHT22;12556;55.748;13.194;2022-08-05T08:26:47;18.30;99.90
11772;DHT22;12556;55.748;13.194;2022-08-05T08:29:15;18.30;99.90
11772;DHT22;12556;55.748;13.194;2022-08-05T08:31:42;18.30;99.90
11772;DHT22;12556;55.748;13.194;2022-08-05T08:34:09;18.30;99.90
11772;DHT22;12556;55.748;13.194;2022-08-05T08:36:36;18.20;99.90
11772;DHT22;12556;55.748;13.194;2022-08-05T08:39:03;18.40;99.90
11772;DHT22;12556;55.748;13.194;2022-08-05T08:41:32;18.40;99.90
11772;DHT22;12556;55.748;13.194;2022-08-05T08:44:01;18.40;99.90
11772;DHT22;12556;55.748;13.194;2022-08-05T08:46:30;18.40;99.90
11772;DHT22;12556;55.748;13.194;2022-08-05T08:48:57;18.40;99.90
11772;DHT22;12556;55.748;13.194;2022-08-05T08:51:26;18.40;99.90
11772;DHT22;12556;55.748;13.194;2022-08-05T08:53:53;18.40;99.90
11772;DHT22;12556;55.748;13.194;2022-08-05T08:56:20;18.40;99.90
11772;DHT22;12556;55.748;13.194;2022-08-05T08:58:48;18.40;99.90
11772;DHT22;12556;55.748;13.194;2022-08-05T09:01:17;18.50;99.90
11772;DHT22;12556;55.748;13.194;2022-08-05T09:03:45;18.50;99.90
11772;DHT22;12556;55.748;13.194;2022-08-05T09:06:12;18.50;99.90
11772;DHT22;12556;55.748;13.194;2022-08-05T09:08:39;18.60;99.90
11772;DHT22;12556;55.748;13.194;2022-08-05T09:11:06;18.50;99.90
11772;DHT22;12556;55.748;13.194;2022-08-05T09:13:33;18.60;99.90
11772;DHT22;12556;55.748;13.194;2022-08-05T09:16:00;18.60;99.90
11772;DHT22;12556;55.748;13.194;2022-08-05T09:18:29;18.70;99.90
11772;DHT22;12556;55.748;13.194;2022-08-05T09:20:55;18.80;99.90
11772;DHT22;12556;55.748;13.194;2022-08-05T09:23:22;18.80;99.90
11772;DHT22;12556;55.748;13.194;2022-08-05T09:25:51;18.90;99.90
11772;DHT22;12556;55.748;13.194;2022-08-05T09:28:20;19.00;99.90
11772;DHT22;12556;55.748;13.194;2022-08-05T09:30:53;19.10;99.90
11772;DHT22;12556;55.748;13.194;2022-08-05T09:33:21;19.10;99.90
11772;DHT22;12556;55.748;13.194;2022-08-05T09:36:00;19.20;99.90
11772;DHT22;12556;55.748;13.194;2022-08-05T09:38:28;19.20;99.90
11772;DHT22;12556;55.748;13.194;2022-08-05T09:41:01;19.20;99.90
11772;DHT22;12556;55.748;13.194;2022-08-05T09:43:32;19.30;99.90
11772;DHT22;12556;55.748;13.194;2022-08-05T09:46:00;19.40;99.90
11772;DHT22;12556;55.748;13.194;2022-08-05T09:48:29;19.50;99.90
11772;DHT22;12556;55.748;13.194;2022-08-05T09:51:00;19.60;99.90
11772;DHT22;12556;55.748;13.194;2022-08-05T09:53:28;19.60;99.90
11772;DHT22;12556;55.748;13.194;2022-08-05T09:55:59;19.70;99.90
11772;DHT22;12556;55.748;13.194;2022-08-05T09:58:27;19.70;99.90
11772;DHT22;12556;55.748;13.194;2022-08-05T10:00:57;19.80;99.90
11772;DHT22;12556;55.748;13.194;2022-08-05T10:03:25;19.80;99.90
11772;DHT22;12556;55.748;13.194;2022-08-05T10:06:07;19.90;99.90
11772;DHT22;12556;55.748;13.194;2022-08-05T10:08:35;20.10;99.90
11772;DHT22;12556;55.748;13.194;2022-08-05T10:11:04;20.20;99.90
11772;DHT22;12556;55.748;13.194;2022-08-05T10:13:33;20.40;99.90
11772;DHT22;12556;55.748;13.194;2022-08-05T10:16:02;20.60;99.90
11772;DHT22;12556;55.748;13.194;2022-08-05T10:18:29;20.70;99.90
11772;DHT22;12556;55.748;13.194;2022-08-05T10:20:59;21.10;99.90
11772;DHT22;12556;55.748;13.194;2022-08-05T10:23:31;21.30;99.90
11772;DHT22;12556;55.748;13.194;2022-08-05T10:26:00;21.50;99.90
11772;DHT22;12556;55.748;13.194;2022-08-05T10:28:28;21.80;99.90
11772;DHT22;12556;55.748;13.194;2022-08-05T10:30:55;22.00;99.90
11772;DHT22;12556;55.748;13.194;2022-08-05T10:33:24;22.20;99.90
11772;DHT22;12556;55.748;13.194;2022-08-05T10:35:52;22.40;99.90
11772;DHT22;12556;55.748;13.194;2022-08-05T10:38:20;22.50;99.90
11772;DHT22;12556;55.748;13.194;2022-08-05T10:40:57;22.80;99.90
11772;DHT22;12556;55.748;13.194;2022-08-05T10:43:41;22.90;99.90
11772;DHT22;12556;55.748;13.194;2022-08-05T10:46:11;22.90;99.90
11772;DHT22;12556;55.748;13.194;2022-08-05T10:48:39;23.10;99.90
11772;DHT22;12556;55.748;13.194;2022-08-05T10:51:09;23.20;99.90
11772;DHT22;12556;55.748;13.194;2022-08-05T10:53:42;23.60;99.90
11772;DHT22;12556;55.748;13.194;2022-08-05T10:56:13;23.80;99.90
11772;DHT22;12556;55.748;13.194;2022-08-05T10:59:01;24.00;99.90
11772;DHT22;12556;55.748;13.194;2022-08-05T11:01:33;24.00;99.90
11772;DHT22;12556;55.748;13.194;2022-08-05T11:04:06;24.00;99.90
11772;DHT22;12556;55.748;13.194;2022-08-05T11:06:35;24.20;99.90
11772;DHT22;12556;55.748;13.194;2022-08-05T11:09:16;24.40;99.90
11772;DHT22;12556;55.748;13.194;2022-08-05T11:11:46;24.60;99.90
11772;DHT22;12556;55.748;13.194;2022-08-05T11:14:22;24.90;99.90
11772;DHT22;12556;55.748;13.194;2022-08-05T11:17:27;24.90;99.90
11772;DHT22;12556;55.748;13.194;2022-08-05T11:19:55;25.20;99.90
11772;DHT22;12556;55.748;13.194;2022-08-05T11:22:41;25.40;99.90
11772;DHT22;12556;55.748;13.194;2022-08-05T11:25:31;25.50;99.90
11772;DHT22;12556;55.748;13.194;2022-08-05T11:31:19;25.90;99.40
11772;DHT22;12556;55.748;13.194;2022-08-05T11:33:53;26.20;99.30
11772;DHT22;12556;55.748;13.194;2022-08-05T11:36:40;26.30;98.60
11772;DHT22;12556;55.748;13.194;2022-08-05T11:39:09;26.30;98.30
11772;DHT22;12556;55.748;13.194;2022-08-05T11:41:38;26.10;97.80
11772;DHT22;12556;55.748;13.194;2022-08-05T11:44:07;26.20;97.70
11772;DHT22;12556;55.748;13.194;2022-08-05T11:46:41;26.30;97.50
11772;DHT22;12556;55.748;13.194;2022-08-05T11:49:11;26.40;97.30
11772;DHT22;12556;55.748;13.194;2022-08-05T11:51:41;26.50;96.80
11772;DHT22;12556;55.748;13.194;2022-08-05T11:54:10;26.60;96.50
11772;DHT22;12556;55.748;13.194;2022-08-05T11:56:44;26.60;96.30
11772;DHT22;12556;55.748;13.194;2022-08-05T11:59:15;26.50;95.60
11772;DHT22;12556;55.748;13.194;2022-08-05T12:01:57;26.40;95.60
11772;DHT22;12556;55.748;13.194;2022-08-05T12:04:26;26.20;95.50
11772;DHT22;12556;55.748;13.194;2022-08-05T12:06:54;25.90;95.30
11772;DHT22;12556;55.748;13.194;2022-08-05T12:09:25;25.70;95.40
11772;DHT22;12556;55.748;13.194;2022-08-05T12:11:55;25.50;95.50
11772;DHT22;12556;55.748;13.194;2022-08-05T12:14:22;25.40;95.70
11772;DHT22;12556;55.748;13.194;2022-08-05T12:16:50;25.20;95.60
11772;DHT22;12556;55.748;13.194;2022-08-05T12:19:18;25.10;95.60
11772;DHT22;12556;55.748;13.194;2022-08-05T12:21:49;25.10;95.80
11772;DHT22;12556;55.748;13.194;2022-08-05T12:24:17;24.80;95.50
11772;DHT22;12556;55.748;13.194;2022-08-05T12:26:46;24.70;95.50
11772;DHT22;12556;55.748;13.194;2022-08-05T12:29:16;24.40;95.50
11772;DHT22;12556;55.748;13.194;2022-08-05T12:31:47;24.10;95.50
11772;DHT22;12556;55.748;13.194;2022-08-05T12:34:15;23.80;95.70
11772;DHT22;12556;55.748;13.194;2022-08-05T12:36:44;23.50;96.00
11772;DHT22;12556;55.748;13.194;2022-08-05T12:39:12;23.30;96.60
11772;DHT22;12556;55.748;13.194;2022-08-05T12:41:40;23.10;96.90
11772;DHT22;12556;55.748;13.194;2022-08-05T12:44:08;22.90;97.70
11772;DHT22;12556;55.748;13.194;2022-08-05T12:46:37;22.60;97.80
11772;DHT22;12556;55.748;13.194;2022-08-05T12:49:05;22.30;98.30
11772;DHT22;12556;55.748;13.194;2022-08-05T12:51:45;21.90;98.90
11772;DHT22;12556;55.748;13.194;2022-08-05T12:54:18;21.70;99.60
11772;DHT22;12556;55.748;13.194;2022-08-05T12:56:48;21.50;99.90
11772;DHT22;12556;55.748;13.194;2022-08-05T12:59:17;21.30;99.90
11772;DHT22;12556;55.748;13.194;2022-08-05T13:01:51;21.00;99.90
11772;DHT22;12556;55.748;13.194;2022-08-05T13:04:19;20.70;99.90
11772;DHT22;12556;55.748;13.194;2022-08-05T13:06:47;20.60;99.90
11772;DHT22;12556;55.748;13.194;2022-08-05T13:09:14;20.50;99.90
11772;DHT22;12556;55.748;13.194;2022-08-05T13:11:42;20.30;99.90
11772;DHT22;12556;55.748;13.194;2022-08-05T13:14:21;20.20;99.90
11772;DHT22;12556;55.748;13.194;2022-08-05T13:16:53;20.10;99.90
11772;DHT22;12556;55.748;13.194;2022-08-05T13:19:22;20.00;99.90
11772;DHT22;12556;55.748;13.194;2022-08-05T13:21:51;20.00;99.90
11772;DHT22;12556;55.748;13.194;2022-08-05T13:24:19;20.00;99.90
11772;DHT22;12556;55.748;13.194;2022-08-05T13:26:47;19.90;99.90
11772;DHT22;12556;55.748;13.194;2022-08-05T13:29:14;19.80;99.90
11772;DHT22;12556;55.748;13.194;2022-08-05T13:31:42;19.70;99.90
11772;DHT22;12556;55.748;13.194;2022-08-05T13:34:09;19.70;99.90
11772;DHT22;12556;55.748;13.194;2022-08-05T13:36:37;19.70;99.90
11772;DHT22;12556;55.748;13.194;2022-08-05T13:39:06;19.70;99.90
11772;DHT22;12556;55.748;13.194;2022-08-05T13:41:33;19.70;99.90
11772;DHT22;12556;55.748;13.194;2022-08-05T13:44:00;19.80;99.90
11772;DHT22;12556;55.748;13.194;2022-08-05T13:46:27;19.70;99.90
11772;DHT22;12556;55.748;13.194;2022-08-05T13:48:55;19.70;99.90
11772;DHT22;12556;55.748;13.194;2022-08-05T13:51:27;19.70;99.90
11772;DHT22;12556;55.748;13.194;2022-08-05T13:53:55;19.70;99.90
11772;DHT22;12556;55.748;13.194;2022-08-05T13:56:24;19.70;99.90
11772;DHT22;12556;55.748;13.194;2022-08-05T13:58:51;19.60;99.90
11772;DHT22;12556;55.748;13.194;2022-08-05T14:01:18;19.50;99.90
11772;DHT22;12556;55.748;13.194;2022-08-05T14:03:45;19.40;99.90
11772;DHT22;12556;55.748;13.194;2022-08-05T14:06:33;19.30;99.90
11772;DHT22;12556;55.748;13.194;2022-08-05T14:08:59;19.20;99.90
11772;DHT22;12556;55.748;13.194;2022-08-05T14:11:28;19.20;99.90
11772;DHT22;12556;55.748;13.194;2022-08-05T14:13:55;19.10;99.90
11772;DHT22;12556;55.748;13.194;2022-08-05T14:16:22;19.00;99.90
11772;DHT22;12556;55.748;13.194;2022-08-05T14:18:49;19.00;99.90
11772;DHT22;12556;55.748;13.194;2022-08-05T14:21:16;18.90;99.90
11772;DHT22;12556;55.748;13.194;2022-08-05T14:23:43;18.90;99.90
11772;DHT22;12556;55.748;13.194;2022-08-05T14:26:10;18.90;99.90
11772;DHT22;12556;55.748;13.194;2022-08-05T14:28:38;18.90;99.90
11772;DHT22;12556;55.748;13.194;2022-08-05T14:31:06;18.80;99.90
11772;DHT22;12556;55.748;13.194;2022-08-05T14:33:33;18.80;99.90
11772;DHT22;12556;55.748;13.194;2022-08-05T14:36:00;18.90;99.90
11772;DHT22;12556;55.748;13.194;2022-08-05T14:38:27;18.90;99.90
11772;DHT22;12556;55.748;13.194;2022-08-05T14:40:55;18.80;99.90
11772;DHT22;12556;55.748;13.194;2022-08-05T14:43:22;18.70;99.90
11772;DHT22;12556;55.748;13.194;2022-08-05T14:45:50;18.80;99.90
11772;DHT22;12556;55.748;13.194;2022-08-05T14:48:17;18.70;99.90
11772;DHT22;12556;55.748;13.194;2022-08-05T14:50:44;18.70;99.90
11772;DHT22;12556;55.748;13.194;2022-08-05T14:53:11;18.80;99.90
11772;DHT22;12556;55.748;13.194;2022-08-05T14:55:38;18.80;99.90
11772;DHT22;12556;55.748;13.194;2022-08-05T14:58:06;18.70;99.90
11772;DHT22;12556;55.748;13.194;2022-08-05T15:00:33;18.70;99.90
11772;DHT22;12556;55.748;13.194;2022-08-05T15:03:02;18.60;99.90
11772;DHT22;12556;55.748;13.194;2022-08-05T15:05:30;18.60;99.90
11772;DHT22;12556;55.748;13.194;2022-08-05T15:07:57;18.60;99.90
11772;DHT22;12556;55.748;13.194;2022-08-05T15:10:24;18.60;99.90
11772;DHT22;12556;55.748;13.194;2022-08-05T15:12:51;18.60;99.90
11772;DHT22;12556;55.748;13.194;2022-08-05T15:15:17;18.50;99.90
11772;DHT22;12556;55.748;13.194;2022-08-05T15:17:44;18.50;99.90
11772;DHT22;12556;55.748;13.194;2022-08-05T15:20:13;18.00;99.90
11772;DHT22;12556;55.748;13.194;2022-08-05T15:22:40;18.40;99.90
11772;DHT22;12556;55.748;13.194;2022-08-05T15:25:07;18.40;99.90
11772;DHT22;12556;55.748;13.194;2022-08-05T15:27:34;18.40;99.90
11772;DHT22;12556;55.748;13.194;2022-08-05T15:30:02;18.40;99.90